sensor_id;sensor_type;location;lat;lon;timestamp;pressure;altitude;pressure_sealevel;temperature;humidity
66703;BME280;60933;46.398;-63.798;2023-05-20T00:00:40;102257.97;;;11.83;52.00
66703;BME280;60933;46.398;-63.798;2023-05-20T00:03:09;102259.72;;;11.71;52.21
66703;BME280;60933;46.398;-63.798;2023-05-20T00:05:35;102261.50;;;11.62;51.84
66703;BME280;60933;46.398;-63.798;2023-05-20T00:08:01;102261.53;;;11.55;51.96
66703;BME280;60933;46.398;-63.798;2023-05-20T00:10:31;102265.88;;;11.46;51.83
66703;BME280;60933;46.398;-63.798;2023-05-20T00:12:57;102274.53;;;11.38;51.21
66703;BME280;60933;46.398;-63.798;2023-05-20T00:15:23;102264.22;;;11.32;51.48
66703;BME280;60933;46.398;-63.798;2023-05-20T00:17:50;102259.09;;;11.24;50.95
66703;BME280;60933;46.398;-63.798;2023-05-20T00:20:16;102271.16;;;11.21;52.03
66703;BME280;60933;46.398;-63.798;2023-05-20T00:22:42;102275.47;;;11.14;52.12
66703;BME280;60933;46.398;-63.798;2023-05-20T00:25:09;102274.63;;;11.07;51.91
66703;BME280;60933;46.398;-63.798;2023-05-20T00:27:35;102278.94;;;11.04;52.87
66703;BME280;60933;46.398;-63.798;2023-05-20T00:30:01;102271.22;;;10.91;53.18
66703;BME280;60933;46.398;-63.798;2023-05-20T00:32:27;102288.44;;;10.89;53.08
66703;BME280;60933;46.398;-63.798;2023-05-20T00:34:57;102282.44;;;10.87;53.49
66703;BME280;60933;46.398;-63.798;2023-05-20T00:37:24;102296.22;;;10.80;53.72
66703;BME280;60933;46.398;-63.798;2023-05-20T00:39:50;102294.47;;;10.77;53.26
66703;BME280;60933;46.398;-63.798;2023-05-20T00:42:20;102297.09;;;10.68;53.67
66703;BME280;60933;46.398;-63.798;2023-05-20T00:44:47;102296.22;;;10.65;53.88
66703;BME280;60933;46.398;-63.798;2023-05-20T00:47:22;102281.56;;;10.51;54.10
66703;BME280;60933;46.398;-63.798;2023-05-20T00:49:50;102289.31;;;10.56;54.71
66703;BME280;60933;46.398;-63.798;2023-05-20T00:52:18;102289.34;;;10.53;54.72
66703;BME280;60933;46.398;-63.798;2023-05-20T00:54:44;102291.91;;;10.43;54.88
66703;BME280;60933;46.398;-63.798;2023-05-20T00:57:11;102275.53;;;10.37;55.13
66703;BME280;60933;46.398;-63.798;2023-05-20T00:59:37;102279.00;;;10.42;54.92
66703;BME280;60933;46.398;-63.798;2023-05-20T01:02:04;102283.28;;;10.41;54.57
66703;BME280;60933;46.398;-63.798;2023-05-20T01:04:31;102287.53;;;10.35;56.81
66703;BME280;60933;46.398;-63.798;2023-05-20T01:07:03;102286.69;;;10.31;56.03
66703;BME280;60933;46.398;-63.798;2023-05-20T01:09:30;102286.69;;;10.25;55.84
66703;BME280;60933;46.398;-63.798;2023-05-20T01:14:45;102296.13;;;10.12;57.59
66703;BME280;60933;46.398;-63.798;2023-05-20T01:17:14;102285.78;;;10.06;56.90
66703;BME280;60933;46.398;-63.798;2023-05-20T01:19:43;102296.09;;;10.06;56.60
66703;BME280;60933;46.398;-63.798;2023-05-20T01:22:11;102293.50;;;10.01;57.66
66703;BME280;60933;46.398;-63.798;2023-05-20T01:24:45;102297.81;;;9.94;57.88
66703;BME280;60933;46.398;-63.798;2023-05-20T01:27:14;102287.47;;;9.90;56.98
66703;BME280;60933;46.398;-63.798;2023-05-20T01:29:41;102295.19;;;9.82;58.37
66703;BME280;60933;46.398;-63.798;2023-05-20T01:32:27;102290.88;;;9.76;58.77
66703;BME280;60933;46.398;-63.798;2023-05-20T01:34:54;102290.88;;;9.72;59.15
66703;BME280;60933;46.398;-63.798;2023-05-20T01:37:22;102297.72;;;9.66;59.90
66703;BME280;60933;46.398;-63.798;2023-05-20T01:39:50;102295.13;;;9.59;59.96
66703;BME280;60933;46.398;-63.798;2023-05-20T01:42:16;102295.09;;;9.54;59.08
66703;BME280;60933;46.398;-63.798;2023-05-20T01:44:44;102304.53;;;9.58;58.71
66703;BME280;60933;46.398;-63.798;2023-05-20T01:47:10;102302.81;;;9.48;60.57
66703;BME280;60933;46.398;-63.798;2023-05-20T01:49:36;102301.09;;;9.50;59.82
66703;BME280;60933;46.398;-63.798;2023-05-20T01:52:03;102300.25;;;9.56;60.26
66703;BME280;60933;46.398;-63.798;2023-05-20T01:54:29;102290.72;;;9.44;60.89
66703;BME280;60933;46.398;-63.798;2023-05-20T01:56:55;102293.31;;;9.42;61.12
66703;BME280;60933;46.398;-63.798;2023-05-20T01:59:21;102296.75;;;9.38;61.23
66703;BME280;60933;46.398;-63.798;2023-05-20T02:01:48;102286.44;;;9.40;59.75
66703;BME280;60933;46.398;-63.798;2023-05-20T02:04:14;102287.25;;;9.35;60.55
66703;BME280;60933;46.398;-63.798;2023-05-20T02:06:40;102286.41;;;9.37;61.33
66703;BME280;60933;46.398;-63.798;2023-05-20T02:09:06;102287.25;;;9.32;60.28
66703;BME280;60933;46.398;-63.798;2023-05-20T02:11:32;102287.25;;;9.32;60.99
66703;BME280;60933;46.398;-63.798;2023-05-20T02:13:58;102279.50;;;9.29;60.00
66703;BME280;60933;46.398;-63.798;2023-05-20T02:16:24;102283.78;;;9.24;61.48
66703;BME280;60933;46.398;-63.798;2023-05-20T02:18:50;102274.31;;;9.22;61.41
66703;BME280;60933;46.398;-63.798;2023-05-20T02:21:17;102276.88;;;9.17;61.75
66703;BME280;60933;46.398;-63.798;2023-05-20T02:23:43;102287.19;;;9.15;61.28
66703;BME280;60933;46.398;-63.798;2023-05-20T02:26:09;102280.28;;;9.16;60.78
66703;BME280;60933;46.398;-63.798;2023-05-20T02:28:36;102281.13;;;9.16;60.76
66703;BME280;60933;46.398;-63.798;2023-05-20T02:31:05;102276.84;;;9.11;62.52
66703;BME280;60933;46.398;-63.798;2023-05-20T02:33:31;102287.09;;;9.08;62.96
66703;BME280;60933;46.398;-63.798;2023-05-20T02:35:58;102280.25;;;9.10;62.72
66703;BME280;60933;46.398;-63.798;2023-05-20T02:38:24;102281.97;;;9.08;62.28
66703;BME280;60933;46.398;-63.798;2023-05-20T02:40:50;102297.44;;;9.11;63.13
66703;BME280;60933;46.398;-63.798;2023-05-20T02:43:16;102291.41;;;9.09;61.68
66703;BME280;60933;46.398;-63.798;2023-05-20T02:45:42;102292.22;;;9.05;63.34
66703;BME280;60933;46.398;-63.798;2023-05-20T02:48:08;102293.09;;;9.05;61.84
66703;BME280;60933;46.398;-63.798;2023-05-20T02:50:37;102279.31;;;8.97;63.60
66703;BME280;60933;46.398;-63.798;2023-05-20T02:53:04;102293.97;;;9.02;64.16
66703;BME280;60933;46.398;-63.798;2023-05-20T02:55:33;102285.34;;;9.00;64.04
66703;BME280;60933;46.398;-63.798;2023-05-20T02:58:00;102295.63;;;8.97;63.53
66703;BME280;60933;46.398;-63.798;2023-05-20T03:00:26;102303.34;;;8.96;63.12
66703;BME280;60933;46.398;-63.798;2023-05-20T03:02:56;102298.19;;;8.96;64.26
66703;BME280;60933;46.398;-63.798;2023-05-20T03:05:23;102297.34;;;8.95;63.30
66703;BME280;60933;46.398;-63.798;2023-05-20T03:07:49;102304.22;;;8.96;63.37
66703;BME280;60933;46.398;-63.798;2023-05-20T03:10:16;102299.88;;;8.94;64.04
66703;BME280;60933;46.398;-63.798;2023-05-20T03:12:42;102305.03;;;8.94;65.09
66703;BME280;60933;46.398;-63.798;2023-05-20T03:15:08;102292.94;;;8.80;65.29
66703;BME280;60933;46.398;-63.798;2023-05-20T03:17:35;102294.66;;;8.83;65.64
66703;BME280;60933;46.398;-63.798;2023-05-20T03:20:01;102296.38;;;8.81;65.40
66703;BME280;60933;46.398;-63.798;2023-05-20T03:22:32;102293.81;;;8.81;64.93
66703;BME280;60933;46.398;-63.798;2023-05-20T03:24:58;102309.22;;;8.78;65.33
66703;BME280;60933;46.398;-63.798;2023-05-20T03:27:27;102298.97;;;8.81;64.48
66703;BME280;60933;46.398;-63.798;2023-05-20T03:29:53;102287.78;;;8.80;64.15
66703;BME280;60933;46.398;-63.798;2023-05-20T03:32:22;102288.66;;;8.81;65.96
66703;BME280;60933;46.398;-63.798;2023-05-20T03:34:48;102285.22;;;8.82;64.50
66703;BME280;60933;46.398;-63.798;2023-05-20T03:37:14;102267.22;;;8.83;63.74
66703;BME280;60933;46.398;-63.798;2023-05-20T03:39:40;102286.94;;;8.81;65.53
66703;BME280;60933;46.398;-63.798;2023-05-20T03:42:06;102278.38;;;8.81;64.77
66703;BME280;60933;46.398;-63.798;2023-05-20T03:44:32;102280.91;;;8.76;64.63
66703;BME280;60933;46.398;-63.798;2023-05-20T03:46:58;102283.44;;;8.75;63.66
66703;BME280;60933;46.398;-63.798;2023-05-20T03:49:24;102283.44;;;8.75;63.62
66703;BME280;60933;46.398;-63.798;2023-05-20T03:51:50;102285.97;;;8.70;64.87
66703;BME280;60933;46.398;-63.798;2023-05-20T03:54:16;102276.53;;;8.66;64.39
66703;BME280;60933;46.398;-63.798;2023-05-20T03:56:43;102275.66;;;8.65;64.09
66703;BME280;60933;46.398;-63.798;2023-05-20T03:59:11;102271.28;;;8.57;65.24
66703;BME280;60933;46.398;-63.798;2023-05-20T04:01:37;102289.41;;;8.67;63.78
66703;BME280;60933;46.398;-63.798;2023-05-20T04:04:03;102277.41;;;8.68;63.89
66703;BME280;60933;46.398;-63.798;2023-05-20T04:06:29;102290.25;;;8.66;64.19
66703;BME280;60933;46.398;-63.798;2023-05-20T04:08:56;102288.59;;;8.71;65.39
66703;BME280;60933;46.398;-63.798;2023-05-20T04:11:22;102280.88;;;8.73;64.79
66703;BME280;60933;46.398;-63.798;2023-05-20T04:13:48;102282.59;;;8.76;64.67
66703;BME280;60933;46.398;-63.798;2023-05-20T04:16:14;102278.34;;;8.78;64.42
66703;BME280;60933;46.398;-63.798;2023-05-20T04:18:41;102280.88;;;8.75;64.37
66703;BME280;60933;46.398;-63.798;2023-05-20T04:21:10;102278.28;;;8.75;63.83
66703;BME280;60933;46.398;-63.798;2023-05-20T04:23:36;102297.16;;;8.72;64.74
66703;BME280;60933;46.398;-63.798;2023-05-20T04:26:02;102292.00;;;8.72;64.18
66703;BME280;60933;46.398;-63.798;2023-05-20T04:28:29;102285.16;;;8.73;63.91
66703;BME280;60933;46.398;-63.798;2023-05-20T04:31:00;102272.28;;;8.74;64.39
66703;BME280;60933;46.398;-63.798;2023-05-20T04:33:30;102265.41;;;8.75;64.39
66703;BME280;60933;46.398;-63.798;2023-05-20T04:35:58;102277.44;;;8.76;64.16
66703;BME280;60933;46.398;-63.798;2023-05-20T04:38:24;102280.03;;;8.73;64.02
66703;BME280;60933;46.398;-63.798;2023-05-20T04:41:01;102260.22;;;8.67;64.91
66703;BME280;60933;46.398;-63.798;2023-05-20T04:43:28;102274.78;;;8.66;64.40
66703;BME280;60933;46.398;-63.798;2023-05-20T04:45:58;102276.53;;;8.64;64.02
66703;BME280;60933;46.398;-63.798;2023-05-20T04:48:26;102271.34;;;8.60;64.81
66703;BME280;60933;46.398;-63.798;2023-05-20T04:50:52;102264.50;;;8.63;64.01
66703;BME280;60933;46.398;-63.798;2023-05-20T04:53:19;102263.59;;;8.58;64.19
66703;BME280;60933;46.398;-63.798;2023-05-20T04:55:47;102270.44;;;8.59;64.03
66703;BME280;60933;46.398;-63.798;2023-05-20T04:58:14;102270.44;;;8.58;65.36
66703;BME280;60933;46.398;-63.798;2023-05-20T05:00:43;102280.75;;;8.59;64.44
66703;BME280;60933;46.398;-63.798;2023-05-20T05:03:10;102273.91;;;8.58;64.75
66703;BME280;60933;46.398;-63.798;2023-05-20T05:05:39;102272.13;;;8.55;65.55
66703;BME280;60933;46.398;-63.798;2023-05-20T05:08:08;102259.28;;;8.54;65.42
66703;BME280;60933;46.398;-63.798;2023-05-20T05:10:36;102267.88;;;8.56;65.81
66703;BME280;60933;46.398;-63.798;2023-05-20T05:13:02;102258.41;;;8.55;65.11
66703;BME280;60933;46.398;-63.798;2023-05-20T05:15:29;102237.78;;;8.49;65.24
66703;BME280;60933;46.398;-63.798;2023-05-20T05:17:55;102247.25;;;8.53;65.06
66703;BME280;60933;46.398;-63.798;2023-05-20T05:20:21;102235.28;;;8.58;64.69
66703;BME280;60933;46.398;-63.798;2023-05-20T05:22:47;102233.53;;;8.54;65.86
66703;BME280;60933;46.398;-63.798;2023-05-20T05:25:16;102239.53;;;8.51;65.36
66703;BME280;60933;46.398;-63.798;2023-05-20T05:27:42;102246.41;;;8.54;64.92
66703;BME280;60933;46.398;-63.798;2023-05-20T05:30:09;102241.28;;;8.59;65.56
66703;BME280;60933;46.398;-63.798;2023-05-20T05:32:36;102232.69;;;8.53;65.08
66703;BME280;60933;46.398;-63.798;2023-05-20T05:35:03;102228.34;;;8.51;65.30
66703;BME280;60933;46.398;-63.798;2023-05-20T05:37:29;102245.56;;;8.55;65.22
66703;BME280;60933;46.398;-63.798;2023-05-20T05:39:55;102238.63;;;8.51;66.13
66703;BME280;60933;46.398;-63.798;2023-05-20T05:42:21;102230.94;;;8.52;65.84
66703;BME280;60933;46.398;-63.798;2023-05-20T05:44:47;102242.97;;;8.57;66.11
66703;BME280;60933;46.398;-63.798;2023-05-20T05:47:14;102262.75;;;8.61;65.07
66703;BME280;60933;46.398;-63.798;2023-05-20T05:49:40;102243.88;;;8.59;65.74
66703;BME280;60933;46.398;-63.798;2023-05-20T05:52:06;102238.72;;;8.59;65.20
66703;BME280;60933;46.398;-63.798;2023-05-20T05:54:32;102242.13;;;8.56;65.53
66703;BME280;60933;46.398;-63.798;2023-05-20T05:56:58;102241.25;;;8.55;65.01
66703;BME280;60933;46.398;-63.798;2023-05-20T05:59:25;102243.88;;;8.60;65.92
66703;BME280;60933;46.398;-63.798;2023-05-20T06:01:51;102233.56;;;8.59;65.90
66703;BME280;60933;46.398;-63.798;2023-05-20T06:04:17;102233.59;;;8.63;65.81
66703;BME280;60933;46.398;-63.798;2023-05-20T06:06:43;102211.25;;;8.59;66.05
66703;BME280;60933;46.398;-63.798;2023-05-20T06:09:09;102212.97;;;8.60;66.22
66703;BME280;60933;46.398;-63.798;2023-05-20T06:11:35;102215.56;;;8.60;65.83
66703;BME280;60933;46.398;-63.798;2023-05-20T06:14:02;102212.16;;;8.64;64.78
66703;BME280;60933;46.398;-63.798;2023-05-20T06:16:28;102214.75;;;8.64;65.83
66703;BME280;60933;46.398;-63.798;2023-05-20T06:18:54;102213.00;;;8.65;65.81
66703;BME280;60933;46.398;-63.798;2023-05-20T06:21:24;102208.72;;;8.62;65.64
66703;BME280;60933;46.398;-63.798;2023-05-20T06:23:50;102210.44;;;8.65;65.80
66703;BME280;60933;46.398;-63.798;2023-05-20T06:26:16;102212.13;;;8.63;65.38
66703;BME280;60933;46.398;-63.798;2023-05-20T06:28:42;102210.44;;;8.66;66.19
66703;BME280;60933;46.398;-63.798;2023-05-20T06:31:08;102201.03;;;8.65;65.70
66703;BME280;60933;46.398;-63.798;2023-05-20T06:33:34;102203.56;;;8.62;65.91
66703;BME280;60933;46.398;-63.798;2023-05-20T06:36:01;102203.56;;;8.61;65.45
66703;BME280;60933;46.398;-63.798;2023-05-20T06:38:27;102194.13;;;8.63;66.01
66703;BME280;60933;46.398;-63.798;2023-05-20T06:40:53;102195.00;;;8.63;65.59
66703;BME280;60933;46.398;-63.798;2023-05-20T06:43:19;102195.00;;;8.66;65.92
66703;BME280;60933;46.398;-63.798;2023-05-20T06:45:45;102185.56;;;8.67;66.59
66703;BME280;60933;46.398;-63.798;2023-05-20T06:48:11;102193.25;;;8.64;67.04
66703;BME280;60933;46.398;-63.798;2023-05-20T06:50:37;102195.00;;;8.63;67.08
66703;BME280;60933;46.398;-63.798;2023-05-20T06:53:03;102187.28;;;8.63;66.14
66703;BME280;60933;46.398;-63.798;2023-05-20T06:55:30;102178.66;;;8.61;66.42
66703;BME280;60933;46.398;-63.798;2023-05-20T06:57:56;102154.66;;;8.62;66.51
66703;BME280;60933;46.398;-63.798;2023-05-20T07:00:22;102165.81;;;8.66;66.41
66703;BME280;60933;46.398;-63.798;2023-05-20T07:02:48;102167.56;;;8.68;67.01
66703;BME280;60933;46.398;-63.798;2023-05-20T07:05:15;102158.97;;;8.69;66.39
66703;BME280;60933;46.398;-63.798;2023-05-20T07:07:41;102164.97;;;8.70;67.04
66703;BME280;60933;46.398;-63.798;2023-05-20T07:10:07;102155.56;;;8.70;66.99
66703;BME280;60933;46.398;-63.798;2023-05-20T07:12:34;102148.66;;;8.63;67.73
66703;BME280;60933;46.398;-63.798;2023-05-20T07:15:00;102154.69;;;8.67;67.47
66703;BME280;60933;46.398;-63.798;2023-05-20T07:17:26;102157.25;;;8.70;66.77
66703;BME280;60933;46.398;-63.798;2023-05-20T07:19:54;102151.25;;;8.69;67.55
66703;BME280;60933;46.398;-63.798;2023-05-20T07:22:21;102139.25;;;8.68;67.25
66703;BME280;60933;46.398;-63.798;2023-05-20T07:24:47;102146.13;;;8.69;67.07
66703;BME280;60933;46.398;-63.798;2023-05-20T07:27:13;102143.53;;;8.68;67.34
66703;BME280;60933;46.398;-63.798;2023-05-20T07:29:39;102141.84;;;8.71;67.04
66703;BME280;60933;46.398;-63.798;2023-05-20T07:32:07;102143.53;;;8.71;67.80
66703;BME280;60933;46.398;-63.798;2023-05-20T07:34:33;102147.84;;;8.72;66.49
66703;BME280;60933;46.398;-63.798;2023-05-20T07:36:59;102143.56;;;8.73;68.17
66703;BME280;60933;46.398;-63.798;2023-05-20T07:39:25;102142.69;;;8.74;68.38
66703;BME280;60933;46.398;-63.798;2023-05-20T07:41:52;102135.84;;;8.73;67.10
66703;BME280;60933;46.398;-63.798;2023-05-20T07:44:18;102150.44;;;8.75;66.50
66703;BME280;60933;46.398;-63.798;2023-05-20T07:46:46;102141.00;;;8.76;67.31
66703;BME280;60933;46.398;-63.798;2023-05-20T07:49:12;102141.88;;;8.78;67.61
66703;BME280;60933;46.398;-63.798;2023-05-20T07:51:38;102147.88;;;8.77;68.06
66703;BME280;60933;46.398;-63.798;2023-05-20T07:54:04;102135.84;;;8.76;68.15
66703;BME280;60933;46.398;-63.798;2023-05-20T07:56:31;102145.31;;;8.80;66.56
66703;BME280;60933;46.398;-63.798;2023-05-20T07:58:58;102144.47;;;8.81;67.87
66703;BME280;60933;46.398;-63.798;2023-05-20T08:01:25;102148.75;;;8.80;66.95
66703;BME280;60933;46.398;-63.798;2023-05-20T08:03:52;102134.16;;;8.76;67.64
66703;BME280;60933;46.398;-63.798;2023-05-20T08:06:18;102150.47;;;8.83;67.89
66703;BME280;60933;46.398;-63.798;2023-05-20T08:08:51;102147.03;;;8.81;68.68
66703;BME280;60933;46.398;-63.798;2023-05-20T08:11:20;102135.88;;;8.79;68.31
66703;BME280;60933;46.398;-63.798;2023-05-20T08:13:47;102141.91;;;8.81;69.65
66703;BME280;60933;46.398;-63.798;2023-05-20T08:16:14;102136.75;;;8.81;67.52
66703;BME280;60933;46.398;-63.798;2023-05-20T08:18:40;102142.75;;;8.81;68.21
66703;BME280;60933;46.398;-63.798;2023-05-20T08:21:06;102149.63;;;8.81;69.63
66703;BME280;60933;46.398;-63.798;2023-05-20T08:23:33;102149.63;;;8.81;69.35
66703;BME280;60933;46.398;-63.798;2023-05-20T08:26:00;102138.44;;;8.82;68.20
66703;BME280;60933;46.398;-63.798;2023-05-20T08:28:29;102142.78;;;8.86;67.28
66703;BME280;60933;46.398;-63.798;2023-05-20T08:30:56;102137.63;;;8.86;68.15
66703;BME280;60933;46.398;-63.798;2023-05-20T08:33:25;102137.63;;;8.86;67.39
66703;BME280;60933;46.398;-63.798;2023-05-20T08:35:51;102145.34;;;8.89;67.87
66703;BME280;60933;46.398;-63.798;2023-05-20T08:38:17;102141.91;;;8.90;68.49
66703;BME280;60933;46.398;-63.798;2023-05-20T08:40:43;102162.53;;;8.92;68.82
66703;BME280;60933;46.398;-63.798;2023-05-20T08:43:10;102150.53;;;8.91;67.89
66703;BME280;60933;46.398;-63.798;2023-05-20T08:45:37;102145.34;;;8.87;69.91
66703;BME280;60933;46.398;-63.798;2023-05-20T08:48:03;102165.09;;;8.90;68.24
66703;BME280;60933;46.398;-63.798;2023-05-20T08:50:30;102165.13;;;8.92;70.21
66703;BME280;60933;46.398;-63.798;2023-05-20T08:52:56;102165.13;;;8.93;69.96
66703;BME280;60933;46.398;-63.798;2023-05-20T08:55:28;102166.84;;;8.96;68.90
66703;BME280;60933;46.398;-63.798;2023-05-20T08:57:55;102172.03;;;8.99;69.84
66703;BME280;60933;46.398;-63.798;2023-05-20T09:00:23;102165.16;;;8.99;67.90
66703;BME280;60933;46.398;-63.798;2023-05-20T09:02:54;102171.16;;;9.01;70.32
66703;BME280;60933;46.398;-63.798;2023-05-20T09:05:21;102183.19;;;9.02;69.32
66703;BME280;60933;46.398;-63.798;2023-05-20T09:07:50;102188.34;;;9.06;68.98
66703;BME280;60933;46.398;-63.798;2023-05-20T09:10:16;102178.06;;;9.07;69.26
66703;BME280;60933;46.398;-63.798;2023-05-20T09:12:42;102183.22;;;9.07;69.51
66703;BME280;60933;46.398;-63.798;2023-05-20T09:15:08;102174.63;;;9.08;68.96
66703;BME280;60933;46.398;-63.798;2023-05-20T09:17:35;102163.47;;;9.09;68.70
66703;BME280;60933;46.398;-63.798;2023-05-20T09:20:08;102169.50;;;9.11;69.00
66703;BME280;60933;46.398;-63.798;2023-05-20T09:22:35;102159.22;;;9.14;68.67
66703;BME280;60933;46.398;-63.798;2023-05-20T09:25:02;102161.81;;;9.19;67.73
66703;BME280;60933;46.398;-63.798;2023-05-20T09:27:28;102161.81;;;9.25;67.76
66703;BME280;60933;46.398;-63.798;2023-05-20T09:29:54;102143.81;;;9.31;68.36
66703;BME280;60933;46.398;-63.798;2023-05-20T09:32:21;102152.41;;;9.37;70.17
66703;BME280;60933;46.398;-63.798;2023-05-20T09:34:53;102171.31;;;9.39;68.85
66703;BME280;60933;46.398;-63.798;2023-05-20T09:37:20;102165.28;;;9.43;70.00
66703;BME280;60933;46.398;-63.798;2023-05-20T09:40:06;102157.59;;;9.44;70.86
66703;BME280;60933;46.398;-63.798;2023-05-20T09:42:40;102154.97;;;9.43;69.85
66703;BME280;60933;46.398;-63.798;2023-05-20T09:45:07;102166.19;;;9.48;68.38
66703;BME280;60933;46.398;-63.798;2023-05-20T09:47:38;102166.22;;;9.57;68.80
66703;BME280;60933;46.398;-63.798;2023-05-20T09:50:09;102164.50;;;9.64;68.41
66703;BME280;60933;46.398;-63.798;2023-05-20T09:52:37;102158.50;;;9.68;67.86
66703;BME280;60933;46.398;-63.798;2023-05-20T09:55:04;102167.09;;;9.75;67.44
66703;BME280;60933;46.398;-63.798;2023-05-20T09:57:35;102172.25;;;9.78;69.09
66703;BME280;60933;46.398;-63.798;2023-05-20T10:00:03;102165.38;;;9.80;67.67
66703;BME280;60933;46.398;-63.798;2023-05-20T10:02:34;102178.28;;;9.86;69.65
66703;BME280;60933;46.398;-63.798;2023-05-20T10:05:06;102198.94;;;9.91;67.84
66703;BME280;60933;46.398;-63.798;2023-05-20T10:10:31;102194.63;;;9.94;68.79
66703;BME280;60933;46.398;-63.798;2023-05-20T10:13:14;102188.59;;;9.94;68.41
66703;BME280;60933;46.398;-63.798;2023-05-20T10:16:41;102201.53;;;9.95;69.44
66703;BME280;60933;46.398;-63.798;2023-05-20T10:18:55;102207.53;;;9.99;69.36
66703;BME280;60933;46.398;-63.798;2023-05-20T10:21:23;102198.94;;;10.02;68.10
66703;BME280;60933;46.398;-63.798;2023-05-20T10:23:50;102223.03;;;10.11;69.23
66703;BME280;60933;46.398;-63.798;2023-05-20T10:26:17;102216.16;;;10.15;67.58
66703;BME280;60933;46.398;-63.798;2023-05-20T10:28:45;102211.00;;;10.20;67.97
66703;BME280;60933;46.398;-63.798;2023-05-20T10:31:20;102210.09;;;10.19;67.14
66703;BME280;60933;46.398;-63.798;2023-05-20T10:33:47;102232.50;;;10.29;67.85
66703;BME280;60933;46.398;-63.798;2023-05-20T10:36:25;102230.75;;;10.33;68.65
66703;BME280;60933;46.398;-63.798;2023-05-20T10:38:55;102231.63;;;10.35;69.09
66703;BME280;60933;46.398;-63.798;2023-05-20T10:41:26;102239.41;;;10.37;69.25
66703;BME280;60933;46.398;-63.798;2023-05-20T10:44:03;102224.75;;;10.36;69.81
66703;BME280;60933;46.398;-63.798;2023-05-20T10:46:30;102237.72;;;10.42;69.34
66703;BME280;60933;46.398;-63.798;2023-05-20T10:48:57;102237.69;;;10.48;70.13
66703;BME280;60933;46.398;-63.798;2023-05-20T10:51:24;102229.94;;;10.50;69.09
66703;BME280;60933;46.398;-63.798;2023-05-20T10:53:54;102230.81;;;10.56;67.09
66703;BME280;60933;46.398;-63.798;2023-05-20T10:56:25;102244.56;;;10.63;69.85
66703;BME280;60933;46.398;-63.798;2023-05-20T10:58:53;102243.69;;;10.72;68.62
66703;BME280;60933;46.398;-63.798;2023-05-20T11:01:25;102235.94;;;10.83;68.13
66703;BME280;60933;46.398;-63.798;2023-05-20T11:03:54;102241.06;;;10.86;68.32
66703;BME280;60933;46.398;-63.798;2023-05-20T11:06:27;102244.53;;;10.92;66.71
66703;BME280;60933;46.398;-63.798;2023-05-20T11:08:54;102238.47;;;10.92;66.60
66703;BME280;60933;46.398;-63.798;2023-05-20T11:11:21;102216.13;;;10.82;66.04
66703;BME280;60933;46.398;-63.798;2023-05-20T11:13:50;102217.81;;;10.95;66.00
66703;BME280;60933;46.398;-63.798;2023-05-20T11:16:19;102216.94;;;11.01;65.14
66703;BME280;60933;46.398;-63.798;2023-05-20T11:18:49;102213.50;;;11.02;66.49
66703;BME280;60933;46.398;-63.798;2023-05-20T11:21:15;102232.41;;;11.13;67.86
66703;BME280;60933;46.398;-63.798;2023-05-20T11:23:41;102242.72;;;11.22;65.44
66703;BME280;60933;46.398;-63.798;2023-05-20T11:26:07;102240.94;;;11.28;66.28
66703;BME280;60933;46.398;-63.798;2023-05-20T11:28:34;102240.94;;;11.35;65.13
66703;BME280;60933;46.398;-63.798;2023-05-20T11:31:00;102246.09;;;11.37;66.96
66703;BME280;60933;46.398;-63.798;2023-05-20T11:33:28;102246.06;;;11.43;66.57
66703;BME280;60933;46.398;-63.798;2023-05-20T11:35:55;102251.19;;;11.55;66.81
66703;BME280;60933;46.398;-63.798;2023-05-20T11:38:22;102261.47;;;11.69;65.95
66703;BME280;60933;46.398;-63.798;2023-05-20T11:40:53;102275.16;;;11.92;64.50
66703;BME280;60933;46.398;-63.798;2023-05-20T11:43:20;102268.19;;;12.09;64.83
66703;BME280;60933;46.398;-63.798;2023-05-20T11:45:52;102270.72;;;12.15;65.14
66703;BME280;60933;46.398;-63.798;2023-05-20T11:48:19;102271.59;;;12.13;65.40
66703;BME280;60933;46.398;-63.798;2023-05-20T11:50:47;102268.19;;;12.06;65.76
66703;BME280;60933;46.398;-63.798;2023-05-20T11:53:15;102276.84;;;12.02;66.49
66703;BME280;60933;46.398;-63.798;2023-05-20T11:55:48;102271.63;;;12.05;64.99
66703;BME280;60933;46.398;-63.798;2023-05-20T11:58:23;102275.03;;;12.13;66.92
66703;BME280;60933;46.398;-63.798;2023-05-20T12:00:49;102259.44;;;12.23;65.54
66703;BME280;60933;46.398;-63.798;2023-05-20T12:03:16;102260.16;;;12.39;64.49
66703;BME280;60933;46.398;-63.798;2023-05-20T12:05:42;102269.63;;;12.47;64.87
66703;BME280;60933;46.398;-63.798;2023-05-20T12:08:08;102277.31;;;12.55;65.32
66703;BME280;60933;46.398;-63.798;2023-05-20T12:10:35;102280.75;;;12.54;65.54
66703;BME280;60933;46.398;-63.798;2023-05-20T12:13:04;102276.47;;;12.55;64.70
66703;BME280;60933;46.398;-63.798;2023-05-20T12:15:34;102280.72;;;12.59;66.05
66703;BME280;60933;46.398;-63.798;2023-05-20T12:18:01;102285.03;;;12.63;66.02
66703;BME280;60933;46.398;-63.798;2023-05-20T12:20:28;102285.84;;;12.66;65.14
66703;BME280;60933;46.398;-63.798;2023-05-20T12:22:56;102290.09;;;12.75;64.98
66703;BME280;60933;46.398;-63.798;2023-05-20T12:25:22;102287.41;;;12.86;64.89
66703;BME280;60933;46.398;-63.798;2023-05-20T12:27:48;102287.28;;;12.98;65.32
66703;BME280;60933;46.398;-63.798;2023-05-20T12:30:19;102292.41;;;13.05;64.90
66703;BME280;60933;46.398;-63.798;2023-05-20T12:32:47;102288.00;;;13.11;65.40
66703;BME280;60933;46.398;-63.798;2023-05-20T12:35:14;102285.25;;;13.28;65.44
66703;BME280;60933;46.398;-63.798;2023-05-20T12:37:42;102297.97;;;13.49;63.76
66703;BME280;60933;46.398;-63.798;2023-05-20T12:40:09;102303.06;;;13.59;64.69
66703;BME280;60933;46.398;-63.798;2023-05-20T12:42:38;102306.41;;;13.66;64.40
66703;BME280;60933;46.398;-63.798;2023-05-20T12:45:07;102311.53;;;13.72;64.10